createdAt,value
2022-12-29T00:04:09.929Z,1.25
2022-12-29T00:09:17.767Z,1.00
2022-12-29T00:14:39.051Z,1.02
2022-12-29T00:20:00.298Z,1.63
2022-12-29T00:25:21.713Z,1.27
2022-12-29T00:30:43.903Z,1.25
2022-12-29T00:35:53.589Z,1.58
2022-12-29T00:41:14.695Z,1.58
2022-12-29T00:46:19.896Z,1.53
2022-12-29T00:51:22.749Z,1.35
2022-12-29T00:56:25.680Z,1.40
2022-12-29T01:01:28.496Z,1.40
2022-12-29T01:06:33.758Z,1.45
2022-12-29T01:11:36.276Z,1.30
2022-12-29T01:16:38.927Z,1.40
2022-12-29T01:21:42.007Z,1.65
2022-12-29T01:26:44.884Z,1.75
2022-12-29T01:31:47.782Z,1.45
2022-12-29T01:36:50.362Z,1.30
2022-12-29T01:41:53.054Z,1.17
2022-12-29T01:46:56.053Z,1.40
2022-12-29T01:52:02.830Z,2.10
2022-12-29T01:57:12.727Z,1.92
2022-12-29T02:02:15.344Z,1.85
2022-12-29T02:07:24.517Z,1.40
2022-12-29T02:12:27.064Z,1.98
2022-12-29T02:17:38.963Z,2.00
2022-12-29T02:22:44.487Z,1.33
2022-12-29T02:27:51.504Z,1.45
2022-12-29T02:33:01.523Z,1.80
2022-12-29T02:38:25.151Z,1.50
2022-12-29T02:44:02.437Z,1.65
2022-12-29T02:49:20.935Z,1.63
2022-12-29T02:54:42.190Z,1.73
2022-12-29T02:59:48.300Z,1.88
2022-12-29T03:05:24.353Z,1.95
2022-12-29T03:10:47.964Z,1.85
2022-12-29T03:16:08.790Z,1.55
2022-12-29T03:21:58.048Z,1.63
2022-12-29T03:27:05.554Z,2.25
2022-12-29T03:32:15.956Z,1.80
2022-12-29T03:37:30.815Z,1.48
2022-12-29T03:42:37.967Z,1.85
2022-12-29T03:47:40.654Z,1.50
2022-12-29T03:52:43.515Z,1.38
2022-12-29T03:57:46.218Z,1.70
2022-12-29T04:02:54.040Z,1.48
2022-12-29T04:08:01.855Z,1.50
2022-12-29T04:13:04.568Z,1.83
2022-12-29T04:18:07.579Z,1.45
2022-12-29T04:23:11.272Z,1.98
2022-12-29T04:28:15.221Z,1.38
2022-12-29T04:33:41.561Z,1.90
2022-12-29T04:38:44.375Z,1.98
2022-12-29T04:43:47.210Z,1.70
2022-12-29T04:49:09.876Z,1.67
2022-12-29T04:54:35.574Z,1.73
2022-12-29T04:59:46.398Z,7.70
2022-12-29T05:04:50.329Z,2.00
2022-12-29T05:09:53.605Z,1.60
2022-12-29T05:14:56.300Z,1.85
2022-12-29T05:20:00.041Z,2.38
2022-12-29T05:25:03.915Z,1.40
2022-12-29T05:30:11.786Z,2.00
2022-12-29T05:35:15.236Z,1.55
2022-12-29T05:40:18.422Z,1.60
2022-12-29T05:45:21.294Z,1.80
2022-12-29T05:50:31.749Z,1.75
2022-12-29T05:55:50.584Z,1.63
2022-12-29T06:00:53.382Z,1.50
2022-12-29T06:05:56.016Z,1.48
2022-12-29T06:10:59.051Z,2.20
2022-12-29T06:16:01.723Z,2.55
2022-12-29T06:21:06.400Z,1.90
2022-12-29T06:26:09.662Z,2.33
2022-12-29T06:31:12.609Z,1.90
2022-12-29T06:36:15.923Z,2.63
2022-12-29T06:41:24.549Z,1.88
2022-12-29T06:46:49.499Z,2.30
2022-12-29T06:51:52.150Z,2.47
2022-12-29T06:56:54.671Z,2.17
2022-12-29T07:01:57.346Z,2.50
2022-12-29T07:07:00.349Z,2.22
2022-12-29T07:12:03.087Z,2.90
2022-12-29T07:17:07.360Z,2.60
2022-12-29T07:22:11.276Z,3.03
2022-12-29T07:27:14.538Z,2.20
2022-12-29T07:32:17.517Z,3.55
2022-12-29T07:37:20.251Z,2.97
2022-12-29T07:42:22.823Z,3.15
2022-12-29T07:47:28.471Z,2.83
2022-12-29T07:52:31.080Z,2.38
2022-12-29T07:57:33.650Z,2.42
2022-12-29T08:02:37.452Z,2.40
2022-12-29T08:07:40.101Z,2.83
2022-12-29T08:12:43.954Z,3.60
2022-12-29T08:17:46.548Z,6.13
2022-12-29T08:22:49.111Z,8.40
2022-12-29T08:27:51.800Z,6.20
2022-12-29T08:32:54.780Z,5.22
2022-12-29T08:37:57.430Z,5.70
2022-12-29T08:43:00.558Z,6.68
2022-12-29T08:48:03.330Z,6.63
2022-12-29T08:53:06.009Z,6.55
2022-12-29T08:58:08.664Z,6.80
2022-12-29T09:03:14.367Z,6.13
2022-12-29T09:08:23.851Z,6.07
2022-12-29T09:13:28.750Z,5.95
2022-12-29T09:18:32.169Z,6.28
2022-12-29T09:23:35.251Z,6.65
2022-12-29T09:28:38.028Z,6.07
2022-12-29T09:33:40.785Z,6.35
2022-12-29T09:38:43.662Z,5.82
2022-12-29T09:43:49.272Z,4.45
2022-12-29T09:49:01.094Z,4.60
2022-12-29T09:54:22.208Z,3.50
2022-12-29T09:59:38.201Z,5.07
2022-12-29T10:04:43.027Z,4.57
2022-12-29T10:10:02.105Z,5.53
2022-12-29T10:15:46.173Z,5.72
2022-12-29T10:21:02.545Z,5.43
2022-12-29T10:26:10.322Z,5.28
2022-12-29T10:31:22.073Z,5.55
2022-12-29T10:36:49.907Z,5.38
2022-12-29T10:42:14.933Z,5.63
2022-12-29T10:47:25.753Z,5.20
2022-12-29T10:52:30.130Z,4.93
2022-12-29T10:57:37.739Z,4.18
2022-12-29T11:03:13.863Z,4.95
2022-12-29T11:08:26.278Z,5.65
2022-12-29T11:13:36.703Z,5.35
2022-12-29T11:18:43.644Z,5.30
2022-12-29T11:23:57.568Z,5.60
2022-12-29T11:29:09.164Z,5.50
2022-12-29T11:34:31.589Z,5.82
2022-12-29T11:39:36.747Z,6.30
2022-12-29T11:44:45.028Z,5.95
2022-12-29T11:49:52.260Z,6.20
2022-12-29T11:54:57.059Z,7.03
2022-12-29T12:00:02.674Z,5.60
2022-12-29T12:05:14.916Z,5.30
2022-12-29T12:10:45.847Z,5.65
2022-12-29T12:15:57.157Z,8.75
2022-12-29T12:21:19.574Z,7.32
2022-12-29T12:26:29.451Z,7.53
2022-12-29T12:31:56.194Z,7.13
2022-12-29T12:37:21.619Z,6.68
2022-12-29T12:42:46.481Z,8.30
2022-12-29T12:48:03.958Z,7.45
2022-12-29T12:53:19.018Z,8.13
2022-12-29T12:58:33.726Z,8.35
2022-12-29T13:03:42.352Z,9.57
2022-12-29T13:08:53.793Z,10.43
2022-12-29T13:14:20.431Z,9.00
2022-12-29T13:20:01.869Z,9.57
2022-12-29T13:25:28.670Z,9.40
2022-12-29T13:30:53.914Z,9.75
2022-12-29T13:35:59.279Z,10.95
2022-12-29T13:41:10.613Z,12.18
2022-12-29T13:46:22.830Z,15.02
2022-12-29T13:51:28.716Z,16.80
2022-12-29T13:56:43.825Z,18.13
2022-12-29T14:01:59.961Z,12.90
2022-12-29T14:07:14.203Z,15.95
2022-12-29T14:12:34.023Z,15.73
2022-12-29T14:17:37.625Z,15.07
2022-12-29T14:22:58.774Z,16.17
2022-12-29T14:28:17.375Z,15.17
2022-12-29T14:33:22.995Z,15.18
2022-12-29T14:38:28.838Z,14.13
2022-12-29T14:43:31.664Z,17.17
2022-12-29T14:48:39.314Z,16.20
2022-12-29T14:53:52.897Z,16.73
2022-12-29T14:59:00.827Z,17.58
2022-12-29T15:04:31.417Z,16.55
2022-12-29T15:09:43.915Z,16.92
2022-12-29T15:14:54.530Z,16.40
2022-12-29T15:19:59.219Z,15.27
2022-12-29T15:25:01.927Z,15.98
2022-12-29T15:30:17.784Z,15.13
2022-12-29T15:35:34.276Z,16.20
2022-12-29T15:40:36.902Z,15.77
2022-12-29T15:45:40.004Z,13.77
2022-12-29T15:50:44.283Z,15.65
2022-12-29T15:55:48.934Z,15.88
2022-12-29T16:00:58.463Z,16.27
2022-12-29T16:06:31.990Z,15.32
2022-12-29T16:11:41.218Z,15.00
2022-12-29T16:16:45.864Z,13.93
2022-12-29T16:21:49.134Z,14.18
2022-12-29T16:27:00.871Z,14.32
2022-12-29T16:32:23.824Z,14.00
2022-12-29T16:37:35.202Z,14.98
2022-12-29T16:42:51.887Z,14.48
2022-12-29T16:48:07.125Z,15.75
2022-12-29T16:53:30.973Z,15.57
2022-12-29T16:58:36.461Z,15.30
2022-12-29T17:03:43.317Z,15.75
2022-12-29T17:08:47.215Z,16.02
2022-12-29T17:13:49.775Z,17.25
2022-12-29T17:18:52.457Z,17.13
2022-12-29T17:23:55.072Z,16.67
2022-12-29T17:28:57.624Z,16.75
2022-12-29T17:34:01.267Z,17.05
2022-12-29T17:39:04.016Z,17.23
2022-12-29T17:44:07.425Z,17.27
2022-12-29T17:49:15.267Z,17.17
2022-12-29T17:54:25.043Z,16.92
2022-12-29T17:59:28.471Z,17.10
2022-12-29T18:04:31.044Z,17.35
2022-12-29T18:09:33.730Z,18.00
2022-12-29T18:14:36.344Z,18.58
2022-12-29T18:19:38.907Z,17.25
2022-12-29T18:24:41.730Z,18.67
2022-12-29T18:29:44.321Z,18.92
2022-12-29T18:34:49.002Z,18.65
2022-12-29T18:39:51.675Z,20.17
2022-12-29T18:44:55.535Z,19.67
2022-12-29T18:49:58.271Z,20.45
2022-12-29T18:55:00.888Z,20.90
2022-12-29T19:00:04.376Z,19.45
2022-12-29T19:05:31.851Z,19.83
2022-12-29T19:10:35.814Z,20.23
2022-12-29T19:15:38.400Z,20.55
2022-12-29T19:20:43.227Z,19.20
2022-12-29T19:25:46.729Z,19.40
2022-12-29T19:30:52.598Z,20.88
2022-12-29T19:36:02.559Z,19.83
2022-12-29T19:41:07.688Z,20.88
2022-12-29T19:46:11.767Z,20.00
2022-12-29T19:51:17.315Z,19.63
2022-12-29T19:56:20.392Z,20.33
2022-12-29T20:01:23.978Z,20.05
2022-12-29T20:06:26.702Z,20.45
2022-12-29T20:11:29.351Z,19.67
2022-12-29T20:16:32.062Z,20.67
2022-12-29T20:21:34.791Z,19.77
2022-12-29T20:26:37.469Z,20.77
2022-12-29T20:31:40.941Z,20.48
2022-12-29T20:36:46.237Z,19.30
2022-12-29T20:41:48.808Z,19.70
2022-12-29T20:46:51.692Z,20.27
2022-12-29T20:52:11.467Z,19.80
2022-12-29T20:57:14.079Z,20.65
2022-12-29T21:02:21.855Z,21.52
2022-12-29T21:07:24.691Z,22.13
2022-12-29T21:12:27.257Z,24.38
2022-12-29T21:17:29.881Z,22.35
2022-12-29T21:22:32.478Z,24.02
2022-12-29T21:27:35.028Z,20.08
2022-12-29T21:32:37.693Z,21.13
2022-12-29T21:37:40.239Z,18.85
2022-12-29T21:42:42.899Z,19.38
2022-12-29T21:48:04.321Z,21.13
2022-12-29T21:53:06.855Z,20.55
2022-12-29T21:58:28.156Z,20.85
2022-12-29T22:03:49.257Z,19.95
2022-12-29T22:09:10.351Z,21.13
2022-12-29T22:14:13.109Z,20.57
2022-12-29T22:19:16.391Z,21.02
2022-12-29T22:24:18.999Z,20.90
2022-12-29T22:29:21.913Z,19.98
2022-12-29T22:34:24.516Z,19.90
2022-12-29T22:39:27.070Z,19.48
2022-12-29T22:44:29.676Z,20.92
2022-12-29T22:49:32.816Z,19.30
2022-12-29T22:54:35.465Z,18.23
2022-12-29T22:59:38.047Z,20.50
2022-12-29T23:05:02.803Z,18.70
2022-12-29T23:10:05.310Z,19.05
2022-12-29T23:15:08.492Z,19.63
2022-12-29T23:20:11.465Z,19.27
2022-12-29T23:25:14.105Z,19.90
2022-12-29T23:30:16.761Z,19.33
2022-12-29T23:35:19.324Z,19.05
2022-12-29T23:40:21.946Z,20.77
2022-12-29T23:45:24.504Z,19.25
2022-12-29T23:50:27.158Z,20.67
2022-12-29T23:55:29.659Z,19.90
